sensor_id;sensor_type;location;lat;lon;timestamp;temperature;humidity
69770;SHT30;57282;52.514;13.458;2022-11-11T00:00:50;13.07;69.19
69770;SHT30;57282;52.514;13.458;2022-11-11T00:03:25;13.02;69.14
69770;SHT30;57282;52.514;13.458;2022-11-11T00:05:51;13.03;69.22
69770;SHT30;57282;52.514;13.458;2022-11-11T00:08:18;13.06;69.11
69770;SHT30;57282;52.514;13.458;2022-11-11T00:10:45;13.04;68.99
69770;SHT30;57282;52.514;13.458;2022-11-11T00:13:12;13.02;68.87
69770;SHT30;57282;52.514;13.458;2022-11-11T00:15:38;12.99;68.75
69770;SHT30;57282;52.514;13.458;2022-11-11T00:18:08;12.97;69.13
69770;SHT30;57282;52.514;13.458;2022-11-11T00:20:57;12.90;69.26
69770;SHT30;57282;52.514;13.458;2022-11-11T00:23:47;12.90;69.11
69770;SHT30;57282;52.514;13.458;2022-11-11T00:26:31;12.86;69.41
69770;SHT30;57282;52.514;13.458;2022-11-11T00:28:58;12.80;69.17
69770;SHT30;57282;52.514;13.458;2022-11-11T00:31:25;12.79;69.57
69770;SHT30;57282;52.514;13.458;2022-11-11T00:33:53;12.79;69.50
69770;SHT30;57282;52.514;13.458;2022-11-11T00:36:20;12.69;70.18
69770;SHT30;57282;52.514;13.458;2022-11-11T00:38:46;12.68;70.51
69770;SHT30;57282;52.514;13.458;2022-11-11T00:41:15;12.70;70.08
69770;SHT30;57282;52.514;13.458;2022-11-11T00:43:45;12.75;69.77
69770;SHT30;57282;52.514;13.458;2022-11-11T00:46:14;12.66;69.97
69770;SHT30;57282;52.514;13.458;2022-11-11T00:49:00;12.80;69.47
69770;SHT30;57282;52.514;13.458;2022-11-11T00:51:45;12.65;69.71
69770;SHT30;57282;52.514;13.458;2022-11-11T00:54:12;12.60;70.23
69770;SHT30;57282;52.514;13.458;2022-11-11T00:56:38;12.53;70.22
69770;SHT30;57282;52.514;13.458;2022-11-11T00:59:07;12.53;70.43
69770;SHT30;57282;52.514;13.458;2022-11-11T01:01:36;12.50;70.36
69770;SHT30;57282;52.514;13.458;2022-11-11T01:04:04;12.52;70.26
69770;SHT30;57282;52.514;13.458;2022-11-11T01:06:31;12.44;70.45
69770;SHT30;57282;52.514;13.458;2022-11-11T01:09:04;12.42;70.62
69770;SHT30;57282;52.514;13.458;2022-11-11T01:11:31;12.37;70.73
69770;SHT30;57282;52.514;13.458;2022-11-11T01:13:58;12.39;70.89
69770;SHT30;57282;52.514;13.458;2022-11-11T01:16:26;12.38;70.59
69770;SHT30;57282;52.514;13.458;2022-11-11T01:18:53;12.44;70.70
69770;SHT30;57282;52.514;13.458;2022-11-11T01:21:23;12.38;70.35
69770;SHT30;57282;52.514;13.458;2022-11-11T01:23:52;12.41;70.65
69770;SHT30;57282;52.514;13.458;2022-11-11T01:26:21;12.41;70.58
69770;SHT30;57282;52.514;13.458;2022-11-11T01:28:51;12.42;70.93
69770;SHT30;57282;52.514;13.458;2022-11-11T01:31:20;12.45;70.59
69770;SHT30;57282;52.514;13.458;2022-11-11T01:33:48;12.44;70.50
69770;SHT30;57282;52.514;13.458;2022-11-11T01:36:18;12.41;70.12
69770;SHT30;57282;52.514;13.458;2022-11-11T01:38:49;12.41;70.26
69770;SHT30;57282;52.514;13.458;2022-11-11T01:41:20;12.39;70.49
69770;SHT30;57282;52.514;13.458;2022-11-11T01:44:02;12.41;70.61
69770;SHT30;57282;52.514;13.458;2022-11-11T01:46:45;12.39;70.47
69770;SHT30;57282;52.514;13.458;2022-11-11T01:49:23;12.42;70.16
69770;SHT30;57282;52.514;13.458;2022-11-11T01:51:58;12.37;70.53
69770;SHT30;57282;52.514;13.458;2022-11-11T01:54:34;12.35;70.54
69770;SHT30;57282;52.514;13.458;2022-11-11T01:57:05;12.35;70.65
69770;SHT30;57282;52.514;13.458;2022-11-11T01:59:39;12.37;70.46
69770;SHT30;57282;52.514;13.458;2022-11-11T02:02:16;12.38;70.08
69770;SHT30;57282;52.514;13.458;2022-11-11T02:04:47;12.35;70.34
69770;SHT30;57282;52.514;13.458;2022-11-11T02:07:33;12.37;70.35
69770;SHT30;57282;52.514;13.458;2022-11-11T02:10:04;12.42;70.49
69770;SHT30;57282;52.514;13.458;2022-11-11T02:12:34;12.37;70.21
69770;SHT30;57282;52.514;13.458;2022-11-11T02:15:18;12.38;70.23
69770;SHT30;57282;52.514;13.458;2022-11-11T02:17:45;12.32;70.24
69770;SHT30;57282;52.514;13.458;2022-11-11T02:20:16;12.37;69.95
69770;SHT30;57282;52.514;13.458;2022-11-11T02:22:50;12.27;70.40
69770;SHT30;57282;52.514;13.458;2022-11-11T02:25:27;12.29;70.23
69770;SHT30;57282;52.514;13.458;2022-11-11T02:27:58;12.17;70.58
69770;SHT30;57282;52.514;13.458;2022-11-11T02:30:28;12.16;71.10
69770;SHT30;57282;52.514;13.458;2022-11-11T02:32:55;12.14;71.21
69770;SHT30;57282;52.514;13.458;2022-11-11T02:35:28;12.17;70.93
69770;SHT30;57282;52.514;13.458;2022-11-11T02:37:57;12.18;70.65
69770;SHT30;57282;52.514;13.458;2022-11-11T02:40:29;12.10;70.91
69770;SHT30;57282;52.514;13.458;2022-11-11T02:42:58;12.14;70.83
69770;SHT30;57282;52.514;13.458;2022-11-11T02:45:25;12.11;70.74
69770;SHT30;57282;52.514;13.458;2022-11-11T02:47:52;12.11;70.87
69770;SHT30;57282;52.514;13.458;2022-11-11T02:50:18;12.10;71.00
69770;SHT30;57282;52.514;13.458;2022-11-11T02:52:45;12.14;71.17
69770;SHT30;57282;52.514;13.458;2022-11-11T02:55:12;12.16;70.89
69770;SHT30;57282;52.514;13.458;2022-11-11T02:57:40;12.16;70.80
69770;SHT30;57282;52.514;13.458;2022-11-11T03:00:08;12.11;70.75
69770;SHT30;57282;52.514;13.458;2022-11-11T03:02:36;12.18;70.67
69770;SHT30;57282;52.514;13.458;2022-11-11T03:05:03;12.11;70.53
69770;SHT30;57282;52.514;13.458;2022-11-11T03:07:30;12.16;70.76
69770;SHT30;57282;52.514;13.458;2022-11-11T03:09:56;12.13;71.09
69770;SHT30;57282;52.514;13.458;2022-11-11T03:12:23;12.14;70.82
69770;SHT30;57282;52.514;13.458;2022-11-11T03:14:51;12.14;70.86
69770;SHT30;57282;52.514;13.458;2022-11-11T03:17:19;12.17;70.67
69770;SHT30;57282;52.514;13.458;2022-11-11T03:20:04;12.17;70.75
69770;SHT30;57282;52.514;13.458;2022-11-11T03:23:01;12.18;70.79
69770;SHT30;57282;52.514;13.458;2022-11-11T03:25:30;12.20;70.63
69770;SHT30;57282;52.514;13.458;2022-11-11T03:28:02;12.16;70.99
69770;SHT30;57282;52.514;13.458;2022-11-11T03:30:31;12.17;71.00
69770;SHT30;57282;52.514;13.458;2022-11-11T03:32:58;12.14;70.71
69770;SHT30;57282;52.514;13.458;2022-11-11T03:35:24;12.17;70.89
69770;SHT30;57282;52.514;13.458;2022-11-11T03:37:51;12.14;70.94
69770;SHT30;57282;52.514;13.458;2022-11-11T03:40:36;12.10;70.51
69770;SHT30;57282;52.514;13.458;2022-11-11T03:43:02;12.10;70.60
69770;SHT30;57282;52.514;13.458;2022-11-11T03:45:31;12.08;70.98
69770;SHT30;57282;52.514;13.458;2022-11-11T03:47:58;12.04;70.77
69770;SHT30;57282;52.514;13.458;2022-11-11T03:50:24;12.08;70.79
69770;SHT30;57282;52.514;13.458;2022-11-11T03:52:52;12.10;70.70
69770;SHT30;57282;52.514;13.458;2022-11-11T03:55:19;12.07;70.79
69770;SHT30;57282;52.514;13.458;2022-11-11T03:57:45;12.10;70.62
69770;SHT30;57282;52.514;13.458;2022-11-11T04:00:14;12.11;70.60
69770;SHT30;57282;52.514;13.458;2022-11-11T04:02:43;12.11;70.62
69770;SHT30;57282;52.514;13.458;2022-11-11T04:05:28;12.10;70.45
69770;SHT30;57282;52.514;13.458;2022-11-11T04:08:13;12.08;70.31
69770;SHT30;57282;52.514;13.458;2022-11-11T04:11:02;12.10;70.48
69770;SHT30;57282;52.514;13.458;2022-11-11T04:13:32;12.13;70.08
69770;SHT30;57282;52.514;13.458;2022-11-11T04:16:19;12.07;70.23
69770;SHT30;57282;52.514;13.458;2022-11-11T04:18:47;11.98;70.68
69770;SHT30;57282;52.514;13.458;2022-11-11T04:21:31;11.98;70.79
69770;SHT30;57282;52.514;13.458;2022-11-11T04:24:11;12.00;70.77
69770;SHT30;57282;52.514;13.458;2022-11-11T04:26:58;12.04;70.29
69770;SHT30;57282;52.514;13.458;2022-11-11T04:29:26;12.01;70.55
69770;SHT30;57282;52.514;13.458;2022-11-11T04:31:52;12.00;70.58
69770;SHT30;57282;52.514;13.458;2022-11-11T04:34:38;11.95;70.84
69770;SHT30;57282;52.514;13.458;2022-11-11T04:37:05;11.95;70.46
69770;SHT30;57282;52.514;13.458;2022-11-11T04:39:32;11.93;71.10
69770;SHT30;57282;52.514;13.458;2022-11-11T04:42:18;11.91;70.53
69770;SHT30;57282;52.514;13.458;2022-11-11T04:44:45;11.94;70.84
69770;SHT30;57282;52.514;13.458;2022-11-11T04:47:29;11.91;70.89
69770;SHT30;57282;52.514;13.458;2022-11-11T04:49:57;11.90;71.23
69770;SHT30;57282;52.514;13.458;2022-11-11T04:52:24;11.89;71.13
69770;SHT30;57282;52.514;13.458;2022-11-11T04:54:54;11.89;71.03
69770;SHT30;57282;52.514;13.458;2022-11-11T04:57:41;11.90;70.75
69770;SHT30;57282;52.514;13.458;2022-11-11T05:00:10;11.87;71.08
69770;SHT30;57282;52.514;13.458;2022-11-11T05:02:38;11.89;71.25
69770;SHT30;57282;52.514;13.458;2022-11-11T05:05:24;11.90;70.96
69770;SHT30;57282;52.514;13.458;2022-11-11T05:07:51;11.89;70.80
69770;SHT30;57282;52.514;13.458;2022-11-11T05:10:36;11.86;71.05
69770;SHT30;57282;52.514;13.458;2022-11-11T05:13:03;11.83;71.15
69770;SHT30;57282;52.514;13.458;2022-11-11T05:15:49;11.77;71.79
69770;SHT30;57282;52.514;13.458;2022-11-11T05:18:33;11.74;70.93
69770;SHT30;57282;52.514;13.458;2022-11-11T05:21:22;11.66;71.56
69770;SHT30;57282;52.514;13.458;2022-11-11T05:23:51;11.70;71.65
69770;SHT30;57282;52.514;13.458;2022-11-11T05:26:36;11.73;71.36
69770;SHT30;57282;52.514;13.458;2022-11-11T05:29:03;11.76;71.53
69770;SHT30;57282;52.514;13.458;2022-11-11T05:31:29;11.80;71.07
69770;SHT30;57282;52.514;13.458;2022-11-11T05:34:01;11.77;70.80
69770;SHT30;57282;52.514;13.458;2022-11-11T05:36:46;11.73;71.20
69770;SHT30;57282;52.514;13.458;2022-11-11T05:39:12;11.67;71.34
69770;SHT30;57282;52.514;13.458;2022-11-11T05:41:39;11.71;71.18
69770;SHT30;57282;52.514;13.458;2022-11-11T05:44:05;11.69;71.14
69770;SHT30;57282;52.514;13.458;2022-11-11T05:46:32;11.79;70.99
69770;SHT30;57282;52.514;13.458;2022-11-11T05:48:59;11.74;70.86
69770;SHT30;57282;52.514;13.458;2022-11-11T05:51:40;11.67;71.42
69770;SHT30;57282;52.514;13.458;2022-11-11T05:54:09;11.67;71.64
69770;SHT30;57282;52.514;13.458;2022-11-11T05:56:37;11.70;71.18
69770;SHT30;57282;52.514;13.458;2022-11-11T05:59:05;11.71;71.02
69770;SHT30;57282;52.514;13.458;2022-11-11T06:01:38;11.74;71.10
69770;SHT30;57282;52.514;13.458;2022-11-11T06:04:05;11.77;70.96
69770;SHT30;57282;52.514;13.458;2022-11-11T06:06:34;11.73;71.32
69770;SHT30;57282;52.514;13.458;2022-11-11T06:09:01;11.76;71.18
69770;SHT30;57282;52.514;13.458;2022-11-11T06:11:30;11.79;70.75
69770;SHT30;57282;52.514;13.458;2022-11-11T06:13:58;11.77;70.69
69770;SHT30;57282;52.514;13.458;2022-11-11T06:16:24;11.79;71.08
69770;SHT30;57282;52.514;13.458;2022-11-11T06:18:51;11.70;71.23
69770;SHT30;57282;52.514;13.458;2022-11-11T06:21:18;11.74;70.77
69770;SHT30;57282;52.514;13.458;2022-11-11T06:23:45;11.76;71.08
69770;SHT30;57282;52.514;13.458;2022-11-11T06:26:12;11.76;70.91
69770;SHT30;57282;52.514;13.458;2022-11-11T06:28:43;11.98;73.63
69770;SHT30;57282;52.514;13.458;2022-11-11T06:31:13;11.97;70.68
69770;SHT30;57282;52.514;13.458;2022-11-11T06:33:43;12.01;70.30
69770;SHT30;57282;52.514;13.458;2022-11-11T06:36:12;11.98;70.41
69770;SHT30;57282;52.514;13.458;2022-11-11T06:38:41;11.94;70.31
69770;SHT30;57282;52.514;13.458;2022-11-11T06:41:09;11.95;70.51
69770;SHT30;57282;52.514;13.458;2022-11-11T06:43:37;11.97;70.67
69770;SHT30;57282;52.514;13.458;2022-11-11T06:46:05;11.97;70.50
69770;SHT30;57282;52.514;13.458;2022-11-11T06:48:32;11.97;70.41
69770;SHT30;57282;52.514;13.458;2022-11-11T06:51:04;11.97;70.10
69770;SHT30;57282;52.514;13.458;2022-11-11T06:53:31;11.95;70.22
69770;SHT30;57282;52.514;13.458;2022-11-11T06:56:00;11.94;70.48
69770;SHT30;57282;52.514;13.458;2022-11-11T06:58:27;12.00;70.32
69770;SHT30;57282;52.514;13.458;2022-11-11T07:00:54;11.94;70.53
69770;SHT30;57282;52.514;13.458;2022-11-11T07:03:22;12.00;70.59
69770;SHT30;57282;52.514;13.458;2022-11-11T07:05:48;12.04;70.49
69770;SHT30;57282;52.514;13.458;2022-11-11T07:08:16;12.07;69.82
69770;SHT30;57282;52.514;13.458;2022-11-11T07:10:45;12.07;69.66
69770;SHT30;57282;52.514;13.458;2022-11-11T07:13:14;12.07;69.90
69770;SHT30;57282;52.514;13.458;2022-11-11T07:15:42;12.07;70.06
69770;SHT30;57282;52.514;13.458;2022-11-11T07:18:09;12.07;69.71
69770;SHT30;57282;52.514;13.458;2022-11-11T07:20:39;12.05;70.12
69770;SHT30;57282;52.514;13.458;2022-11-11T07:23:06;12.02;70.03
69770;SHT30;57282;52.514;13.458;2022-11-11T07:25:34;12.07;70.03
69770;SHT30;57282;52.514;13.458;2022-11-11T07:28:01;12.11;70.08
69770;SHT30;57282;52.514;13.458;2022-11-11T07:30:27;12.13;69.67
69770;SHT30;57282;52.514;13.458;2022-11-11T07:32:54;12.16;69.39
69770;SHT30;57282;52.514;13.458;2022-11-11T07:35:22;12.14;69.27
69770;SHT30;57282;52.514;13.458;2022-11-11T07:37:59;12.17;69.63
69770;SHT30;57282;52.514;13.458;2022-11-11T07:40:30;12.21;69.60
69770;SHT30;57282;52.514;13.458;2022-11-11T07:42:56;12.21;69.73
69770;SHT30;57282;52.514;13.458;2022-11-11T07:45:23;12.22;69.65
69770;SHT30;57282;52.514;13.458;2022-11-11T07:47:49;12.20;69.22
69770;SHT30;57282;52.514;13.458;2022-11-11T07:50:16;12.20;69.45
69770;SHT30;57282;52.514;13.458;2022-11-11T07:52:47;12.18;69.57
69770;SHT30;57282;52.514;13.458;2022-11-11T07:55:16;12.22;69.18
69770;SHT30;57282;52.514;13.458;2022-11-11T07:57:43;12.18;69.80
69770;SHT30;57282;52.514;13.458;2022-11-11T08:00:11;12.17;70.04
69770;SHT30;57282;52.514;13.458;2022-11-11T08:02:39;12.27;69.68
69770;SHT30;57282;52.514;13.458;2022-11-11T08:05:07;12.24;68.42
69770;SHT30;57282;52.514;13.458;2022-11-11T08:07:34;12.18;68.66
69770;SHT30;57282;52.514;13.458;2022-11-11T08:10:02;12.18;69.41
69770;SHT30;57282;52.514;13.458;2022-11-11T08:12:30;12.17;69.46
69770;SHT30;57282;52.514;13.458;2022-11-11T08:15:15;12.17;69.17
69770;SHT30;57282;52.514;13.458;2022-11-11T08:17:41;12.25;69.41
69770;SHT30;57282;52.514;13.458;2022-11-11T08:20:09;12.21;69.47
69770;SHT30;57282;52.514;13.458;2022-11-11T08:22:37;12.32;68.51
69770;SHT30;57282;52.514;13.458;2022-11-11T08:25:05;12.25;69.15
69770;SHT30;57282;52.514;13.458;2022-11-11T08:27:35;12.25;69.04
69770;SHT30;57282;52.514;13.458;2022-11-11T08:30:04;12.28;69.24
69770;SHT30;57282;52.514;13.458;2022-11-11T08:32:32;12.24;68.69
69770;SHT30;57282;52.514;13.458;2022-11-11T08:35:00;12.24;68.78
69770;SHT30;57282;52.514;13.458;2022-11-11T08:37:26;12.31;69.00
69770;SHT30;57282;52.514;13.458;2022-11-11T08:39:53;12.32;68.74
69770;SHT30;57282;52.514;13.458;2022-11-11T08:42:21;12.38;68.64
69770;SHT30;57282;52.514;13.458;2022-11-11T08:44:49;12.42;68.61
69770;SHT30;57282;52.514;13.458;2022-11-11T08:47:16;12.48;68.13
69770;SHT30;57282;52.514;13.458;2022-11-11T08:49:44;12.49;68.22
69770;SHT30;57282;52.514;13.458;2022-11-11T08:52:13;12.53;68.22
69770;SHT30;57282;52.514;13.458;2022-11-11T08:54:41;12.58;67.87
69770;SHT30;57282;52.514;13.458;2022-11-11T08:57:07;12.62;67.55
69770;SHT30;57282;52.514;13.458;2022-11-11T08:59:34;12.63;67.67
69770;SHT30;57282;52.514;13.458;2022-11-11T09:02:02;12.62;67.48
69770;SHT30;57282;52.514;13.458;2022-11-11T09:04:28;12.70;67.25
69770;SHT30;57282;52.514;13.458;2022-11-11T09:06:55;12.72;67.30
69770;SHT30;57282;52.514;13.458;2022-11-11T09:09:22;12.72;66.32
69770;SHT30;57282;52.514;13.458;2022-11-11T09:11:48;12.77;66.70
69770;SHT30;57282;52.514;13.458;2022-11-11T09:14:15;12.83;65.90
69770;SHT30;57282;52.514;13.458;2022-11-11T09:16:42;12.85;66.23
69770;SHT30;57282;52.514;13.458;2022-11-11T09:19:10;12.87;66.25
69770;SHT30;57282;52.514;13.458;2022-11-11T09:21:37;12.86;66.14
69770;SHT30;57282;52.514;13.458;2022-11-11T09:24:04;12.92;65.94
69770;SHT30;57282;52.514;13.458;2022-11-11T09:26:31;13.00;65.26
69770;SHT30;57282;52.514;13.458;2022-11-11T09:28:57;12.96;65.75
69770;SHT30;57282;52.514;13.458;2022-11-11T09:31:24;13.00;66.12
69770;SHT30;57282;52.514;13.458;2022-11-11T09:33:51;12.99;65.56
69770;SHT30;57282;52.514;13.458;2022-11-11T09:36:19;13.02;65.31
69770;SHT30;57282;52.514;13.458;2022-11-11T09:38:46;13.06;65.06
69770;SHT30;57282;52.514;13.458;2022-11-11T09:41:18;13.14;65.75
69770;SHT30;57282;52.514;13.458;2022-11-11T09:43:53;13.17;65.48
69770;SHT30;57282;52.514;13.458;2022-11-11T09:46:30;13.21;64.53
69770;SHT30;57282;52.514;13.458;2022-11-11T09:49:19;13.23;64.83
69770;SHT30;57282;52.514;13.458;2022-11-11T09:52:00;13.23;64.45
69770;SHT30;57282;52.514;13.458;2022-11-11T09:54:36;13.28;65.73
69770;SHT30;57282;52.514;13.458;2022-11-11T09:57:14;13.37;64.50
69770;SHT30;57282;52.514;13.458;2022-11-11T09:59:46;13.38;65.06
69770;SHT30;57282;52.514;13.458;2022-11-11T10:02:24;13.61;66.55
69770;SHT30;57282;52.514;13.458;2022-11-11T10:05:01;14.82;67.46
69770;SHT30;57282;52.514;13.458;2022-11-11T10:07:37;15.93;62.48
69770;SHT30;57282;52.514;13.458;2022-11-11T10:10:15;16.57;59.00
69770;SHT30;57282;52.514;13.458;2022-11-11T10:12:52;16.35;56.86
69770;SHT30;57282;52.514;13.458;2022-11-11T10:15:21;15.95;56.69
69770;SHT30;57282;52.514;13.458;2022-11-11T10:18:10;15.60;56.86
69770;SHT30;57282;52.514;13.458;2022-11-11T10:20:51;15.30;58.20
69770;SHT30;57282;52.514;13.458;2022-11-11T10:23:24;14.96;58.92
69770;SHT30;57282;52.514;13.458;2022-11-11T10:25:56;14.84;59.60
69770;SHT30;57282;52.514;13.458;2022-11-11T10:28:34;14.71;60.37
69770;SHT30;57282;52.514;13.458;2022-11-11T10:31:05;14.61;60.48
69770;SHT30;57282;52.514;13.458;2022-11-11T10:33:45;14.56;61.50
69770;SHT30;57282;52.514;13.458;2022-11-11T10:36:17;14.57;61.47
69770;SHT30;57282;52.514;13.458;2022-11-11T10:38:49;14.61;61.76
69770;SHT30;57282;52.514;13.458;2022-11-11T10:41:28;14.52;61.37
69770;SHT30;57282;52.514;13.458;2022-11-11T10:43:59;14.60;61.74
69770;SHT30;57282;52.514;13.458;2022-11-11T10:46:28;14.60;61.24
69770;SHT30;57282;52.514;13.458;2022-11-11T10:49:07;14.52;60.85
69770;SHT30;57282;52.514;13.458;2022-11-11T10:51:42;14.43;61.14
69770;SHT30;57282;52.514;13.458;2022-11-11T10:54:20;14.43;61.79
69770;SHT30;57282;52.514;13.458;2022-11-11T10:56:57;14.45;62.00
69770;SHT30;57282;52.514;13.458;2022-11-11T10:59:32;14.56;62.00
69770;SHT30;57282;52.514;13.458;2022-11-11T11:02:07;14.56;61.53
69770;SHT30;57282;52.514;13.458;2022-11-11T11:04:41;14.60;61.93
69770;SHT30;57282;52.514;13.458;2022-11-11T11:07:17;14.67;61.85
69770;SHT30;57282;52.514;13.458;2022-11-11T11:09:53;14.71;61.26
69770;SHT30;57282;52.514;13.458;2022-11-11T11:12:27;14.67;61.59
69770;SHT30;57282;52.514;13.458;2022-11-11T11:15:05;14.67;61.70
69770;SHT30;57282;52.514;13.458;2022-11-11T11:17:39;14.68;61.35
69770;SHT30;57282;52.514;13.458;2022-11-11T11:20:16;14.67;61.40
69770;SHT30;57282;52.514;13.458;2022-11-11T11:22:47;14.71;61.75
69770;SHT30;57282;52.514;13.458;2022-11-11T11:25:17;14.71;61.38
69770;SHT30;57282;52.514;13.458;2022-11-11T11:27:45;14.77;61.53
69770;SHT30;57282;52.514;13.458;2022-11-11T11:30:18;14.71;61.78
69770;SHT30;57282;52.514;13.458;2022-11-11T11:32:56;14.77;62.03
69770;SHT30;57282;52.514;13.458;2022-11-11T11:35:35;14.82;61.33
69770;SHT30;57282;52.514;13.458;2022-11-11T11:38:04;14.87;61.70
69770;SHT30;57282;52.514;13.458;2022-11-11T11:40:50;14.80;60.79
69770;SHT30;57282;52.514;13.458;2022-11-11T11:43:30;14.72;60.20
69770;SHT30;57282;52.514;13.458;2022-11-11T11:46:00;14.70;60.23
69770;SHT30;57282;52.514;13.458;2022-11-11T11:48:40;14.74;60.89
69770;SHT30;57282;52.514;13.458;2022-11-11T11:51:30;14.68;60.62
69770;SHT30;57282;52.514;13.458;2022-11-11T11:54:12;14.80;61.32
69770;SHT30;57282;52.514;13.458;2022-11-11T11:56:55;14.87;60.65
69770;SHT30;57282;52.514;13.458;2022-11-11T11:59:32;14.82;60.36
69770;SHT30;57282;52.514;13.458;2022-11-11T12:02:17;14.74;59.98
69770;SHT30;57282;52.514;13.458;2022-11-11T12:05:04;14.80;60.64
69770;SHT30;57282;52.514;13.458;2022-11-11T12:07:51;14.84;60.69
69770;SHT30;57282;52.514;13.458;2022-11-11T12:10:38;14.92;60.48
69770;SHT30;57282;52.514;13.458;2022-11-11T12:13:24;14.92;60.71
69770;SHT30;57282;52.514;13.458;2022-11-11T12:16:15;14.93;60.61
69770;SHT30;57282;52.514;13.458;2022-11-11T12:19:06;15.01;61.06
69770;SHT30;57282;52.514;13.458;2022-11-11T12:21:54;15.02;60.32
69770;SHT30;57282;52.514;13.458;2022-11-11T12:24:38;15.03;59.60
69770;SHT30;57282;52.514;13.458;2022-11-11T12:27:18;15.08;60.10
69770;SHT30;57282;52.514;13.458;2022-11-11T12:30:03;15.05;60.35
69770;SHT30;57282;52.514;13.458;2022-11-11T12:32:51;15.08;59.94
69770;SHT30;57282;52.514;13.458;2022-11-11T12:35:40;15.12;59.29
69770;SHT30;57282;52.514;13.458;2022-11-11T12:38:24;15.16;59.55
69770;SHT30;57282;52.514;13.458;2022-11-11T12:41:09;15.19;58.47
69770;SHT30;57282;52.514;13.458;2022-11-11T12:43:49;15.08;57.56
69770;SHT30;57282;52.514;13.458;2022-11-11T12:46:35;14.99;58.81
69770;SHT30;57282;52.514;13.458;2022-11-11T12:49:24;14.99;59.03
69770;SHT30;57282;52.514;13.458;2022-11-11T12:52:25;15.02;59.46
69770;SHT30;57282;52.514;13.458;2022-11-11T12:55:12;15.10;59.37
69770;SHT30;57282;52.514;13.458;2022-11-11T12:58:00;15.05;58.20
69770;SHT30;57282;52.514;13.458;2022-11-11T13:00:37;15.12;59.32
69770;SHT30;57282;52.514;13.458;2022-11-11T13:03:32;15.18;59.15
69770;SHT30;57282;52.514;13.458;2022-11-11T13:06:20;15.18;59.47
69770;SHT30;57282;52.514;13.458;2022-11-11T13:09:14;15.15;59.58
69770;SHT30;57282;52.514;13.458;2022-11-11T13:11:56;15.18;59.88
69770;SHT30;57282;52.514;13.458;2022-11-11T13:14:57;15.22;59.59
69770;SHT30;57282;52.514;13.458;2022-11-11T13:17:30;15.28;59.82
69770;SHT30;57282;52.514;13.458;2022-11-11T13:20:02;15.23;59.63
69770;SHT30;57282;52.514;13.458;2022-11-11T13:22:37;15.29;59.85
69770;SHT30;57282;52.514;13.458;2022-11-11T13:25:05;15.30;60.39
69770;SHT30;57282;52.514;13.458;2022-11-11T13:27:41;15.33;59.86
69770;SHT30;57282;52.514;13.458;2022-11-11T13:30:35;15.36;60.39
69770;SHT30;57282;52.514;13.458;2022-11-11T13:33:12;15.36;59.78
69770;SHT30;57282;52.514;13.458;2022-11-11T13:35:46;15.32;59.79
69770;SHT30;57282;52.514;13.458;2022-11-11T13:38:25;15.37;59.59
69770;SHT30;57282;52.514;13.458;2022-11-11T13:40:56;15.35;58.99
69770;SHT30;57282;52.514;13.458;2022-11-11T13:43:30;15.33;59.26
69770;SHT30;57282;52.514;13.458;2022-11-11T13:46:02;15.28;59.26
69770;SHT30;57282;52.514;13.458;2022-11-11T13:48:33;15.35;59.71
69770;SHT30;57282;52.514;13.458;2022-11-11T13:51:21;15.35;59.48
69770;SHT30;57282;52.514;13.458;2022-11-11T13:53:51;15.33;59.53
69770;SHT30;57282;52.514;13.458;2022-11-11T13:56:24;15.35;59.84
69770;SHT30;57282;52.514;13.458;2022-11-11T13:58:54;15.35;59.73
69770;SHT30;57282;52.514;13.458;2022-11-11T14:01:23;15.36;60.27
69770;SHT30;57282;52.514;13.458;2022-11-11T14:04:00;15.37;60.22
69770;SHT30;57282;52.514;13.458;2022-11-11T14:06:54;15.35;59.48
69770;SHT30;57282;52.514;13.458;2022-11-11T14:09:56;15.35;59.60
69770;SHT30;57282;52.514;13.458;2022-11-11T14:12:39;15.29;59.81
69770;SHT30;57282;52.514;13.458;2022-11-11T14:15:32;15.32;60.11
69770;SHT30;57282;52.514;13.458;2022-11-11T14:18:01;15.32;59.74
69770;SHT30;57282;52.514;13.458;2022-11-11T14:20:36;15.33;59.84
69770;SHT30;57282;52.514;13.458;2022-11-11T14:23:32;15.30;60.19
69770;SHT30;57282;52.514;13.458;2022-11-11T14:26:20;15.33;60.16
69770;SHT30;57282;52.514;13.458;2022-11-11T14:28:52;15.33;60.02
69770;SHT30;57282;52.514;13.458;2022-11-11T14:31:35;15.35;60.16
69770;SHT30;57282;52.514;13.458;2022-11-11T14:34:53;15.32;60.64
69770;SHT30;57282;52.514;13.458;2022-11-11T14:37:42;15.26;60.07
69770;SHT30;57282;52.514;13.458;2022-11-11T14:40:25;15.28;60.33
69770;SHT30;57282;52.514;13.458;2022-11-11T14:42:54;15.23;60.07
69770;SHT30;57282;52.514;13.458;2022-11-11T14:49:02;15.19;60.67
69770;SHT30;57282;52.514;13.458;2022-11-11T14:51:50;15.19;60.91
69770;SHT30;57282;52.514;13.458;2022-11-11T14:54:33;15.19;60.51
69770;SHT30;57282;52.514;13.458;2022-11-11T14:57:19;15.18;60.06
69770;SHT30;57282;52.514;13.458;2022-11-11T14:59:50;15.18;60.11
69770;SHT30;57282;52.514;13.458;2022-11-11T15:02:27;15.12;60.58
69770;SHT30;57282;52.514;13.458;2022-11-11T15:04:58;15.08;60.75
69770;SHT30;57282;52.514;13.458;2022-11-11T15:07:36;15.09;61.03
69770;SHT30;57282;52.514;13.458;2022-11-11T15:10:30;15.09;61.19
69770;SHT30;57282;52.514;13.458;2022-11-11T15:13:20;15.05;61.12
69770;SHT30;57282;52.514;13.458;2022-11-11T15:16:09;15.08;61.46
69770;SHT30;57282;52.514;13.458;2022-11-11T15:18:56;15.19;61.61
69770;SHT30;57282;52.514;13.458;2022-11-11T15:21:50;15.20;61.19
69770;SHT30;57282;52.514;13.458;2022-11-11T15:24:34;15.18;60.96
69770;SHT30;57282;52.514;13.458;2022-11-11T15:27:18;15.18;61.31
69770;SHT30;57282;52.514;13.458;2022-11-11T15:30:09;15.16;61.06
69770;SHT30;57282;52.514;13.458;2022-11-11T15:32:46;15.20;61.35
69770;SHT30;57282;52.514;13.458;2022-11-11T15:35:32;16.43;62.23
69770;SHT30;57282;52.514;13.458;2022-11-11T15:38:04;17.10;59.08
69770;SHT30;57282;52.514;13.458;2022-11-11T15:40:43;17.58;56.47
69770;SHT30;57282;52.514;13.458;2022-11-11T15:43:18;18.09;54.87
69770;SHT30;57282;52.514;13.458;2022-11-11T15:45:51;18.44;53.20
69770;SHT30;57282;52.514;13.458;2022-11-11T15:48:21;18.71;52.53
69770;SHT30;57282;52.514;13.458;2022-11-11T15:50:50;18.92;51.39
69770;SHT30;57282;52.514;13.458;2022-11-11T15:53:22;19.03;50.74
69770;SHT30;57282;52.514;13.458;2022-11-11T15:55:53;19.07;50.65
69770;SHT30;57282;52.514;13.458;2022-11-11T15:58:26;19.23;49.89
69770;SHT30;57282;52.514;13.458;2022-11-11T16:00:56;19.26;49.77